createdAt,value
2022-09-22T00:01:18.713Z,2.87
2022-09-22T00:03:51.061Z,3.57
2022-09-22T00:06:22.932Z,4.03
2022-09-22T00:08:51.785Z,3.20
2022-09-22T00:11:40.461Z,3.77
2022-09-22T00:14:13.798Z,3.43
2022-09-22T00:16:44.837Z,3.40
2022-09-22T00:19:24.875Z,3.73
2022-09-22T00:21:52.207Z,4.10
2022-09-22T00:24:22.523Z,3.90
2022-09-22T00:26:50.191Z,4.03
2022-09-22T00:29:17.245Z,3.97
2022-09-22T00:31:45.141Z,3.77
2022-09-22T00:34:20.902Z,3.60
2022-09-22T00:36:48.798Z,3.97
2022-09-22T00:39:16.907Z,3.03
2022-09-22T00:41:46.399Z,3.47
2022-09-22T00:44:36.526Z,3.83
2022-09-22T00:47:26.863Z,3.63
2022-09-22T00:49:53.507Z,3.53
2022-09-22T00:52:24.561Z,3.77
2022-09-22T00:54:54.667Z,3.83
2022-09-22T00:57:25.890Z,3.33
2022-09-22T00:59:54.335Z,3.60
2022-09-22T01:02:21.311Z,3.17
2022-09-22T01:04:50.797Z,4.07
2022-09-22T01:07:18.859Z,4.33
2022-09-22T01:09:45.532Z,3.40
2022-09-22T01:12:12.977Z,3.87
2022-09-22T01:15:10.500Z,3.40
2022-09-22T01:18:27.324Z,3.90
2022-09-22T01:21:02.616Z,3.83
2022-09-22T01:23:53.353Z,3.17
2022-09-22T01:26:50.117Z,3.00
2022-09-22T01:29:47.071Z,3.30
2022-09-22T01:32:29.849Z,3.47
2022-09-22T01:35:08.221Z,4.00
2022-09-22T01:38:07.199Z,3.70
2022-09-22T01:40:46.963Z,3.40
2022-09-22T01:43:33.028Z,3.30
2022-09-22T01:46:03.236Z,2.90
2022-09-22T01:48:33.149Z,3.00
2022-09-22T01:51:12.003Z,2.70
2022-09-22T01:53:45.258Z,3.60
2022-09-22T01:56:16.195Z,3.43
2022-09-22T01:58:47.669Z,2.53
2022-09-22T02:01:18.190Z,2.70
2022-09-22T02:04:00.214Z,2.50
2022-09-22T02:06:39.875Z,2.43
2022-09-22T02:09:09.969Z,2.60
2022-09-22T02:11:36.835Z,2.90
2022-09-22T02:14:05.491Z,2.90
2022-09-22T02:16:33.060Z,3.00
2022-09-22T02:19:16.370Z,2.47
2022-09-22T02:21:44.975Z,3.10
2022-09-22T02:24:37.632Z,2.80
2022-09-22T02:27:13.868Z,2.73
2022-09-22T02:29:49.757Z,3.10
2022-09-22T02:32:17.479Z,3.10
2022-09-22T02:34:46.390Z,2.60
2022-09-22T02:37:34.445Z,2.73
2022-09-22T02:40:32.632Z,2.67
2022-09-22T02:43:12.527Z,2.33
2022-09-22T02:45:59.814Z,3.00
2022-09-22T02:48:32.869Z,2.60
2022-09-22T02:50:59.805Z,3.17
2022-09-22T02:53:26.493Z,2.30
2022-09-22T02:55:53.167Z,2.83
2022-09-22T02:58:19.760Z,3.30
2022-09-22T03:00:46.386Z,2.67
2022-09-22T03:03:13.385Z,2.93
2022-09-22T03:05:40.253Z,2.60
2022-09-22T03:08:06.899Z,2.70
2022-09-22T03:10:33.786Z,2.77
2022-09-22T03:13:17.435Z,2.70
2022-09-22T03:15:45.624Z,3.07
2022-09-22T03:18:13.515Z,3.10
2022-09-22T03:20:40.628Z,2.43
2022-09-22T03:23:07.766Z,2.50
2022-09-22T03:25:34.533Z,3.13
2022-09-22T03:28:01.404Z,2.80
2022-09-22T03:30:28.093Z,3.17
2022-09-22T03:32:54.755Z,3.13
2022-09-22T03:35:21.593Z,3.03
2022-09-22T03:37:48.255Z,3.03
2022-09-22T03:40:14.988Z,3.37
2022-09-22T03:42:41.712Z,2.60
2022-09-22T03:45:09.404Z,2.97
2022-09-22T03:47:36.064Z,3.33
2022-09-22T03:50:03.009Z,2.90
2022-09-22T03:52:29.707Z,2.50
2022-09-22T03:54:56.403Z,3.10
2022-09-22T03:57:23.041Z,2.83
2022-09-22T03:59:49.737Z,2.40
2022-09-22T04:02:17.112Z,2.73
2022-09-22T04:04:43.811Z,2.60
2022-09-22T04:07:10.507Z,3.30
2022-09-22T04:09:37.225Z,2.67
2022-09-22T04:12:04.139Z,2.20
2022-09-22T04:14:30.772Z,2.43
2022-09-22T04:16:57.472Z,2.10
2022-09-22T04:19:24.460Z,2.40
2022-09-22T04:21:57.070Z,2.30
2022-09-22T04:24:24.744Z,2.17
2022-09-22T04:27:15.625Z,2.03
2022-09-22T04:29:38.614Z,2.63
2022-09-22T04:32:05.877Z,2.47
2022-09-22T04:34:32.560Z,2.50
2022-09-22T04:36:59.445Z,2.60
2022-09-22T04:39:28.524Z,2.80
2022-09-22T04:41:55.538Z,2.43
2022-09-22T04:44:22.573Z,3.07
2022-09-22T04:46:50.305Z,2.80
2022-09-22T04:49:18.125Z,2.43
2022-09-22T04:51:45.341Z,2.97
2022-09-22T04:54:11.988Z,2.83
2022-09-22T04:56:38.798Z,2.97
2022-09-22T04:59:05.552Z,3.00
2022-09-22T05:01:32.326Z,3.07
2022-09-22T05:03:59.305Z,2.90
2022-09-22T05:06:26.504Z,3.30
2022-09-22T05:08:53.403Z,3.33
2022-09-22T05:11:21.993Z,3.17
2022-09-22T05:13:49.316Z,3.37
2022-09-22T05:16:16.992Z,3.00
2022-09-22T05:18:43.721Z,3.00
2022-09-22T05:21:10.597Z,3.07
2022-09-22T05:23:37.425Z,3.67
2022-09-22T05:26:04.052Z,3.50
2022-09-22T05:28:31.033Z,3.67
2022-09-22T05:30:57.720Z,3.57
2022-09-22T05:33:24.429Z,2.90
2022-09-22T05:35:51.147Z,3.13
2022-09-22T05:38:17.813Z,3.10
2022-09-22T05:40:47.496Z,3.20
2022-09-22T05:43:16.750Z,2.97
2022-09-22T05:45:44.623Z,2.67
2022-09-22T05:48:11.492Z,3.27
2022-09-22T05:50:38.366Z,4.03
2022-09-22T05:53:08.244Z,3.13
2022-09-22T05:55:35.512Z,3.00
2022-09-22T05:58:02.547Z,3.87
2022-09-22T06:00:29.959Z,3.30
2022-09-22T06:02:57.007Z,4.07
2022-09-22T06:05:24.226Z,3.53
2022-09-22T06:08:03.214Z,3.53
2022-09-22T06:10:31.418Z,3.47
2022-09-22T06:13:03.224Z,3.40
2022-09-22T06:15:31.227Z,3.70
2022-09-22T06:17:57.920Z,3.10
2022-09-22T06:20:24.655Z,3.40
2022-09-22T06:22:51.388Z,3.70
2022-09-22T06:25:18.190Z,3.60
2022-09-22T06:27:45.160Z,7.30
2022-09-22T06:30:12.675Z,3.70
2022-09-22T06:32:39.876Z,5.03
2022-09-22T06:35:08.111Z,3.80
2022-09-22T06:37:38.485Z,3.93
2022-09-22T06:40:08.242Z,3.80
2022-09-22T06:42:35.807Z,3.70
2022-09-22T06:45:04.560Z,4.60
2022-09-22T06:47:32.901Z,4.40
2022-09-22T06:50:01.329Z,4.50
2022-09-22T06:52:28.906Z,3.50
2022-09-22T06:54:58.588Z,3.60
2022-09-22T06:57:27.287Z,4.03
2022-09-22T06:59:54.239Z,3.70
2022-09-22T07:02:22.257Z,3.40
2022-09-22T07:04:48.985Z,3.23
2022-09-22T07:07:16.562Z,2.73
2022-09-22T07:09:43.301Z,3.20
2022-09-22T07:12:10.029Z,2.90
2022-09-22T07:14:36.805Z,3.03
2022-09-22T07:17:03.549Z,3.07
2022-09-22T07:19:36.168Z,3.17
2022-09-22T07:22:03.280Z,3.40
2022-09-22T07:24:29.919Z,3.40
2022-09-22T07:26:56.599Z,2.77
2022-09-22T07:29:23.666Z,3.93
2022-09-22T07:31:51.734Z,3.57
2022-09-22T07:34:18.680Z,3.00
2022-09-22T07:36:45.685Z,3.53
2022-09-22T07:39:12.537Z,3.50
2022-09-22T07:41:43.240Z,3.17
2022-09-22T07:44:30.872Z,3.70
2022-09-22T07:46:58.335Z,2.77
2022-09-22T07:49:25.021Z,2.23
2022-09-22T07:51:58.042Z,2.63
2022-09-22T07:54:25.982Z,2.60
2022-09-22T07:56:56.025Z,2.73
2022-09-22T07:59:22.721Z,2.90
2022-09-22T08:01:50.733Z,2.70
2022-09-22T08:04:22.643Z,2.43
2022-09-22T08:06:52.937Z,2.60
2022-09-22T08:09:19.687Z,2.00
2022-09-22T08:11:48.589Z,2.60
2022-09-22T08:14:17.315Z,3.40
2022-09-22T08:16:45.770Z,2.30
2022-09-22T08:19:14.022Z,2.73
2022-09-22T08:21:48.762Z,2.40
2022-09-22T08:24:21.408Z,2.20
2022-09-22T08:26:52.647Z,1.97
2022-09-22T08:29:20.342Z,2.37
2022-09-22T08:31:47.761Z,2.23
2022-09-22T08:34:16.609Z,2.10
2022-09-22T08:36:46.589Z,2.20
2022-09-22T08:39:13.737Z,1.53
2022-09-22T08:42:13.944Z,1.40
2022-09-22T08:45:02.893Z,1.80
2022-09-22T08:48:04.711Z,1.90
2022-09-22T08:50:57.992Z,1.70
2022-09-22T08:53:26.813Z,1.87
2022-09-22T08:56:14.515Z,1.60
2022-09-22T08:58:55.057Z,1.90
2022-09-22T09:01:46.898Z,1.67
2022-09-22T09:04:49.191Z,1.53
2022-09-22T09:07:29.184Z,1.60
2022-09-22T09:10:15.075Z,1.70
2022-09-22T09:12:55.739Z,1.97
2022-09-22T09:15:51.568Z,1.60
2022-09-22T09:18:27.017Z,0.97
2022-09-22T09:20:54.895Z,1.30
2022-09-22T09:25:22.010Z,0.90
2022-09-22T09:26:18.095Z,1.20
2022-09-22T09:28:48.665Z,1.00
2022-09-22T09:31:31.058Z,1.20
2022-09-22T09:34:14.445Z,1.20
2022-09-22T09:36:44.760Z,0.90
2022-09-22T09:39:16.732Z,1.00
2022-09-22T09:41:46.957Z,1.33
2022-09-22T09:44:44.048Z,1.00
2022-09-22T09:47:29.237Z,1.00
2022-09-22T09:49:56.048Z,1.10
2022-09-22T09:52:25.807Z,0.90
2022-09-22T09:54:54.256Z,1.33
2022-09-22T09:57:27.707Z,1.10
2022-09-22T10:00:33.196Z,0.80
2022-09-22T10:03:03.065Z,1.63
2022-09-22T10:05:31.842Z,0.90
2022-09-22T10:08:02.933Z,1.10
2022-09-22T10:10:29.584Z,1.17
2022-09-22T10:13:28.515Z,1.50
2022-09-22T10:16:22.779Z,1.50
2022-09-22T10:18:52.130Z,0.77
2022-09-22T10:21:23.501Z,1.20
2022-09-22T10:23:51.317Z,1.00
2022-09-22T10:26:31.910Z,1.10
2022-09-22T10:29:18.890Z,1.20
2022-09-22T10:32:00.897Z,1.10
2022-09-22T10:34:37.208Z,1.00
2022-09-22T10:37:10.374Z,1.03
2022-09-22T10:39:57.493Z,0.90
2022-09-22T10:42:41.227Z,1.10
2022-09-22T10:45:13.808Z,1.50
2022-09-22T10:47:43.669Z,0.90
2022-09-22T10:50:31.294Z,0.97
2022-09-22T10:53:21.683Z,0.80
2022-09-22T10:56:13.686Z,1.13
2022-09-22T10:59:16.757Z,1.37
2022-09-22T11:01:53.313Z,0.90
2022-09-22T11:04:51.402Z,0.90
2022-09-22T11:07:44.604Z,1.10
2022-09-22T11:10:53.015Z,1.00
2022-09-22T11:13:38.621Z,1.10
2022-09-22T11:16:28.376Z,1.03
2022-09-22T11:19:12.703Z,1.27
2022-09-22T11:21:43.740Z,1.47
2022-09-22T11:24:23.757Z,1.10
2022-09-22T11:26:58.854Z,1.00
2022-09-22T11:29:47.240Z,1.30
2022-09-22T11:32:48.969Z,1.07
2022-09-22T11:35:18.765Z,1.00
2022-09-22T11:38:18.919Z,1.10
2022-09-22T11:40:51.397Z,1.10
2022-09-22T11:43:38.521Z,1.03
2022-09-22T11:46:25.186Z,1.37
2022-09-22T11:49:16.231Z,0.97
2022-09-22T11:52:00.432Z,1.00
2022-09-22T11:54:46.920Z,1.30
2022-09-22T11:57:23.493Z,1.40
2022-09-22T12:00:11.426Z,1.30
2022-09-22T12:03:02.429Z,1.20
2022-09-22T12:05:35.387Z,1.20
2022-09-22T12:08:16.958Z,1.10
2022-09-22T12:10:45.316Z,1.43
2022-09-22T12:13:22.037Z,1.27
2022-09-22T12:16:10.876Z,1.70
2022-09-22T12:18:49.998Z,1.00
2022-09-22T12:21:39.947Z,1.90
2022-09-22T12:24:11.640Z,1.70
2022-09-22T12:26:41.095Z,1.03
2022-09-22T12:29:16.551Z,1.37
2022-09-22T12:31:47.321Z,1.30
2022-09-22T12:34:22.308Z,1.00
2022-09-22T12:36:53.687Z,1.53
2022-09-22T12:39:30.955Z,1.40
2022-09-22T12:42:02.518Z,1.20
2022-09-22T12:44:36.502Z,1.57
2022-09-22T12:47:07.698Z,1.23
2022-09-22T12:49:34.538Z,1.47
2022-09-22T12:52:01.427Z,2.00
2022-09-22T12:54:36.913Z,1.30
2022-09-22T12:59:40.161Z,1.27
2022-09-22T13:02:31.620Z,1.07
2022-09-22T13:04:58.587Z,0.90
2022-09-22T13:07:34.050Z,1.20
2022-09-22T13:10:22.868Z,1.33
2022-09-22T13:13:09.242Z,1.27
2022-09-22T13:15:51.050Z,2.10
2022-09-22T13:18:37.299Z,1.40
2022-09-22T13:21:12.920Z,1.80
2022-09-22T13:23:49.340Z,1.10
2022-09-22T13:26:17.014Z,1.63
2022-09-22T13:28:44.628Z,1.50
2022-09-22T13:31:19.492Z,1.53
2022-09-22T13:33:46.504Z,1.43
2022-09-22T13:36:18.922Z,1.73
2022-09-22T13:38:51.313Z,1.27
2022-09-22T13:41:23.980Z,1.80
2022-09-22T13:44:04.049Z,1.40
2022-09-22T13:46:41.019Z,1.60
2022-09-22T13:49:11.577Z,1.30
2022-09-22T13:51:38.529Z,1.30
2022-09-22T13:54:07.048Z,1.70
2022-09-22T13:56:34.544Z,1.57
2022-09-22T13:59:02.948Z,1.37
2022-09-22T14:01:30.644Z,1.23
2022-09-22T14:03:57.688Z,1.13
2022-09-22T14:06:27.090Z,1.17
2022-09-22T14:08:55.045Z,1.43
2022-09-22T14:11:33.100Z,1.70
2022-09-22T14:14:01.764Z,1.37
2022-09-22T14:16:56.645Z,1.30
2022-09-22T14:19:29.216Z,1.50
2022-09-22T14:21:58.081Z,1.40
2022-09-22T14:24:26.360Z,1.17
2022-09-22T14:26:59.060Z,1.00
2022-09-22T14:29:36.530Z,1.73
2022-09-22T14:32:09.534Z,1.03
2022-09-22T14:34:39.388Z,2.23
2022-09-22T14:37:28.366Z,1.20
2022-09-22T14:39:57.207Z,1.30
2022-09-22T14:42:34.924Z,1.40
2022-09-22T14:45:21.131Z,1.30
2022-09-22T14:48:17.427Z,1.00
2022-09-22T14:50:48.416Z,1.10
2022-09-22T14:53:26.765Z,1.00
2022-09-22T14:56:34.087Z,0.90
2022-09-22T14:59:25.748Z,0.90
2022-09-22T15:02:12.509Z,1.03
2022-09-22T15:04:43.105Z,0.90
2022-09-22T15:07:24.767Z,1.00
2022-09-22T15:10:01.064Z,1.00
2022-09-22T15:12:40.194Z,1.03
2022-09-22T15:15:23.776Z,1.20
2022-09-22T15:18:21.568Z,0.80
2022-09-22T15:20:52.665Z,1.20
2022-09-22T15:23:21.716Z,1.10
2022-09-22T15:25:49.804Z,1.00
2022-09-22T15:28:23.705Z,1.23
2022-09-22T15:30:52.241Z,1.63
2022-09-22T15:33:21.012Z,1.10
2022-09-22T15:35:52.026Z,1.10
2022-09-22T15:38:21.154Z,1.27
2022-09-22T15:40:48.388Z,1.70
2022-09-22T15:43:20.755Z,2.73
2022-09-22T15:45:53.880Z,2.60
2022-09-22T15:48:27.733Z,1.87
2022-09-22T15:50:55.821Z,1.57
2022-09-22T15:53:24.010Z,2.30
2022-09-22T15:55:52.646Z,1.30
2022-09-22T15:58:22.938Z,1.80
2022-09-22T16:00:52.247Z,2.00
2022-09-22T16:03:24.369Z,2.53
2022-09-22T16:06:03.463Z,2.10
2022-09-22T16:08:44.704Z,2.53
2022-09-22T16:11:29.374Z,3.97
2022-09-22T16:13:58.242Z,2.23
2022-09-22T16:16:27.096Z,2.33
2022-09-22T16:18:54.223Z,1.77
2022-09-22T16:21:27.311Z,1.63
2022-09-22T16:23:59.524Z,1.37
2022-09-22T16:26:31.565Z,1.40
2022-09-22T16:28:58.754Z,1.10
2022-09-22T16:31:27.099Z,1.20
2022-09-22T16:33:55.901Z,1.43
2022-09-22T16:36:24.641Z,1.40
2022-09-22T16:38:51.320Z,1.20
2022-09-22T16:41:25.064Z,1.20
2022-09-22T16:43:52.731Z,1.00
2022-09-22T16:46:30.332Z,0.90
2022-09-22T16:49:03.202Z,1.10
2022-09-22T16:51:36.178Z,1.10
2022-09-22T16:54:05.468Z,1.00
2022-09-22T16:56:34.373Z,1.00
2022-09-22T16:59:01.609Z,1.00
2022-09-22T17:01:31.128Z,1.10
2022-09-22T17:03:58.513Z,0.90
2022-09-22T17:06:26.790Z,1.03
2022-09-22T17:08:56.879Z,1.20
2022-09-22T17:11:30.102Z,1.13
2022-09-22T17:14:02.936Z,0.93
2022-09-22T17:16:52.428Z,1.30
2022-09-22T17:19:27.560Z,1.40
2022-09-22T17:21:55.881Z,1.53
2022-09-22T17:24:23.747Z,1.43
2022-09-22T17:26:55.980Z,1.73
2022-09-22T17:29:27.644Z,1.30
2022-09-22T17:32:00.200Z,1.43
2022-09-22T17:34:28.575Z,1.90
2022-09-22T17:36:56.841Z,1.40
2022-09-22T17:39:24.531Z,2.20
2022-09-22T17:41:51.804Z,1.40
2022-09-22T17:44:21.357Z,1.90
2022-09-22T17:47:11.416Z,1.30
2022-09-22T17:49:58.188Z,1.87
2022-09-22T17:52:28.367Z,1.53
2022-09-22T17:55:09.274Z,1.67
2022-09-22T17:57:41.092Z,1.23
2022-09-22T18:00:10.780Z,1.50
2022-09-22T18:02:38.828Z,1.70
2022-09-22T18:05:11.668Z,1.70
2022-09-22T18:07:40.380Z,1.93
2022-09-22T18:10:13.282Z,1.30
2022-09-22T18:12:41.148Z,1.30
2022-09-22T18:15:12.696Z,1.50
2022-09-22T18:17:44.465Z,1.90
2022-09-22T18:20:21.215Z,1.70
2022-09-22T18:22:49.115Z,1.50
2022-09-22T18:25:23.036Z,1.60
2022-09-22T18:27:50.044Z,2.10
2022-09-22T18:30:19.166Z,1.97
2022-09-22T18:32:47.177Z,2.07
2022-09-22T18:35:15.349Z,2.33
2022-09-22T18:37:42.238Z,2.00
2022-09-22T18:40:11.290Z,2.23
2022-09-22T18:42:40.225Z,1.83
2022-09-22T18:45:07.683Z,2.07
2022-09-22T18:47:39.659Z,1.90
2022-09-22T18:50:06.802Z,2.30
2022-09-22T18:52:33.657Z,2.13
2022-09-22T18:55:02.473Z,2.33
2022-09-22T18:57:29.288Z,2.30
2022-09-22T18:59:59.803Z,3.20
2022-09-22T19:02:26.594Z,3.00
2022-09-22T19:04:53.577Z,4.07
2022-09-22T19:07:42.432Z,3.10
2022-09-22T19:10:15.226Z,4.30
2022-09-22T19:12:42.592Z,4.07
2022-09-22T19:15:16.420Z,3.97
2022-09-22T19:17:45.012Z,3.57
2022-09-22T19:20:31.109Z,4.30
2022-09-22T19:22:57.760Z,3.80
2022-09-22T19:25:24.535Z,3.37
2022-09-22T19:27:52.864Z,4.03
2022-09-22T19:30:23.376Z,3.17
2022-09-22T19:32:51.653Z,7.90
2022-09-22T19:35:19.456Z,6.50
2022-09-22T19:37:46.934Z,5.90
2022-09-22T19:40:18.570Z,4.00
2022-09-22T19:42:46.789Z,3.20
2022-09-22T19:45:13.643Z,2.80
2022-09-22T19:47:41.348Z,3.33
2022-09-22T19:50:08.533Z,3.33
2022-09-22T19:52:35.993Z,3.43
2022-09-22T19:55:02.731Z,3.27
2022-09-22T19:57:29.385Z,3.00
2022-09-22T19:59:56.308Z,2.80
2022-09-22T20:02:24.588Z,2.97
2022-09-22T20:04:51.301Z,3.33
2022-09-22T20:07:18.011Z,3.43
2022-09-22T20:09:46.267Z,3.00
2022-09-22T20:12:13.057Z,3.17
2022-09-22T20:14:39.926Z,2.70
2022-09-22T20:17:08.610Z,2.60
2022-09-22T20:19:40.503Z,2.70
2022-09-22T20:22:22.216Z,3.07
2022-09-22T20:24:54.794Z,3.23
2022-09-22T20:27:24.312Z,2.70
2022-09-22T20:29:55.064Z,2.57
2022-09-22T20:32:24.269Z,2.80
2022-09-22T20:34:52.209Z,3.17
2022-09-22T20:37:19.252Z,2.43
2022-09-22T20:39:45.975Z,3.20
2022-09-22T20:42:13.686Z,3.37
2022-09-22T20:44:42.137Z,2.87
2022-09-22T20:47:13.885Z,3.40
2022-09-22T20:49:46.842Z,2.70
2022-09-22T20:52:18.426Z,2.57
2022-09-22T20:54:46.329Z,3.20
2022-09-22T20:57:14.029Z,2.67
2022-09-22T20:59:46.703Z,2.33
2022-09-22T21:02:14.967Z,2.43
2022-09-22T21:04:42.115Z,3.10
2022-09-22T21:07:10.446Z,3.00
2022-09-22T21:09:55.820Z,2.47
2022-09-22T21:12:27.346Z,2.77
2022-09-22T21:14:57.603Z,2.60
2022-09-22T21:17:24.599Z,2.20
2022-09-22T21:19:51.349Z,3.50
2022-09-22T21:22:18.016Z,2.70
2022-09-22T21:24:48.660Z,2.83
2022-09-22T21:27:15.427Z,3.50
2022-09-22T21:29:42.338Z,2.43
2022-09-22T21:32:09.557Z,2.37
2022-09-22T21:34:36.568Z,3.20
2022-09-22T21:37:04.186Z,2.90
2022-09-22T21:39:30.889Z,3.07
2022-09-22T21:41:57.528Z,2.93
2022-09-22T21:44:24.336Z,3.43
2022-09-22T21:46:50.973Z,3.20
2022-09-22T21:49:17.686Z,3.30
2022-09-22T21:51:44.482Z,3.10
2022-09-22T21:54:18.963Z,2.90
2022-09-22T21:56:46.100Z,3.03
2022-09-22T21:59:13.394Z,3.10
2022-09-22T22:01:42.213Z,2.97
2022-09-22T22:04:13.399Z,2.50
2022-09-22T22:06:42.093Z,2.77
2022-09-22T22:09:20.187Z,2.83
2022-09-22T22:11:52.876Z,2.80
2022-09-22T22:14:21.492Z,2.87
2022-09-22T22:16:50.848Z,2.47
2022-09-22T22:19:20.175Z,3.43
2022-09-22T22:21:48.882Z,2.77
2022-09-22T22:24:17.935Z,3.10
2022-09-22T22:26:47.052Z,3.10
2022-09-22T22:29:13.997Z,3.00
2022-09-22T22:31:41.701Z,2.90
2022-09-22T22:34:13.488Z,3.10
2022-09-22T22:36:40.899Z,3.20
2022-09-22T22:39:09.098Z,3.30
2022-09-22T22:41:36.241Z,3.10
2022-09-22T22:44:03.392Z,3.20
2022-09-22T22:46:30.145Z,2.87
2022-09-22T22:48:57.668Z,2.90
2022-09-22T22:51:24.914Z,3.23
2022-09-22T22:53:53.117Z,3.63
2022-09-22T22:56:25.270Z,3.43
2022-09-22T22:58:53.129Z,2.70
2022-09-22T23:01:21.039Z,3.13
2022-09-22T23:03:56.350Z,4.20
2022-09-22T23:06:31.715Z,3.20
2022-09-22T23:08:58.743Z,3.20
2022-09-22T23:11:31.082Z,3.00
2022-09-22T23:14:01.951Z,3.23
2022-09-22T23:16:33.923Z,3.30
2022-09-22T23:19:02.816Z,3.20
2022-09-22T23:21:32.836Z,3.53
2022-09-22T23:24:01.026Z,2.80
2022-09-22T23:26:29.790Z,3.23
2022-09-22T23:29:01.559Z,3.27
2022-09-22T23:31:28.401Z,3.33
2022-09-22T23:33:55.058Z,3.20
2022-09-22T23:36:24.380Z,3.77
2022-09-22T23:38:55.621Z,3.07
2022-09-22T23:41:22.887Z,3.40
2022-09-22T23:43:50.473Z,3.90
2022-09-22T23:46:17.451Z,3.40
2022-09-22T23:48:44.172Z,3.33
2022-09-22T23:51:10.796Z,3.40
2022-09-22T23:53:38.101Z,3.47
2022-09-22T23:56:06.273Z,3.83
2022-09-22T23:58:33.956Z,3.33
